Bookmark and Share
Track history (hours):
 

M\v Black Rhino

Last reported at 2014-Apr-13 21:32 UTC. Time now 2014-Apr-17 18:28 UTC.
Position S 28°42' E 032°29'.

Length 100 m; draft 6 m.

Type: Cargo ship. MMSI: 538090408.

NotesDate/timePositionNaut miles runAvg speedWind from/ knotsBaromVisibWave heightAir tempDewpointWater temp
2014-Apr-13 21:32S 28°42' E 032°29'8 8.2
2014-Apr-13 20:32S 28°48' E 032°22'8 7.9
2014-Apr-13 19:29S 28°54' E 032°15'7 7.7
2014-Apr-13 18:32S 28°58' E 032°09'8 8.3
2014-Apr-13 17:33S 29°04' E 032°02'9 9.1
2014-Apr-13 16:32S 29°10' E 031°54'10 9.9
2014-Apr-13 15:32S 29°17' E 031°46'10 9.8
2014-Apr-13 14:33S 29°24' E 031°38'10 9.8
2014-Apr-13 13:33S 29°30' E 031°30'10 9.9
2014-Apr-13 12:33S 29°37' E 031°22'1010.1
2014-Apr-13 11:33S 29°44' E 031°13'1110.6
2014-Apr-13 10:33S 29°51' E 031°04'2 1.7
2014-Apr-13 09:33S 29°52' E 031°03'0 0.0
2014-Apr-13 08:33S 29°52' E 031°03'0 0.0
2014-Apr-13 07:27S 29°52' E 031°03'0 0.0
2014-Apr-13 06:33S 29°52' E 031°03'0 0.0
2014-Apr-13 05:21S 29°52' E 031°03'0 0.0
2014-Apr-13 04:09S 29°52' E 031°03'0 0.0
2014-Apr-13 03:27S 29°52' E 031°03'0 0.0
2014-Apr-13 02:33S 29°52' E 031°03'0 0.0
2014-Apr-13 01:27S 29°52' E 031°03'0 0.0
2014-Apr-13 00:27S 29°52' E 031°03'0 0.0
2014-Apr-12 23:33S 29°52' E 031°03'0 0.0
2014-Apr-12 22:33S 29°52' E 031°03'0 0.0
2014-Apr-12 21:27S 29°52' E 031°03'0 0.0
2014-Apr-12 20:15S 29°52' E 031°03'0 0.0
2014-Apr-12 19:27S 29°52' E 031°03'0 0.0
2014-Apr-12 18:21S 29°52' E 031°03'0 0.0
2014-Apr-12 17:33S 29°52' E 031°03'0 0.0
2014-Apr-12 16:27S 29°52' E 031°03'0 0.1
2014-Apr-12 15:33S 29°52' E 031°03'0 0.1
2014-Apr-12 14:33S 29°52' E 031°03'0 0.0
2014-Apr-12 13:33S 29°52' E 031°03'0 0.0
2014-Apr-12 12:33S 29°52' E 031°03'0 0.0
2014-Apr-12 11:33S 29°52' E 031°03'0 0.0
2014-Apr-12 10:15S 29°52' E 031°03'0 0.0
2014-Apr-12 09:33S 29°52' E 031°03'0 0.0
2014-Apr-12 08:27S 29°52' E 031°03'0 0.0
2014-Apr-12 07:27S 29°52' E 031°03'0 0.0
2014-Apr-12 06:33S 29°52' E 031°03'0 0.0
2014-Apr-12 05:33S 29°52' E 031°03'0 0.0
2014-Apr-12 04:15S 29°52' E 031°03'0 0.0
2014-Apr-12 03:33S 29°52' E 031°03'0 0.0
2014-Apr-12 02:33S 29°52' E 031°03'0 0.0
2014-Apr-12 01:21S 29°52' E 031°03'0 0.0
2014-Apr-12 00:27S 29°52' E 031°03'0 0.0
2014-Apr-11 23:09S 29°52' E 031°03'0 0.0
2014-Apr-11 22:15S 29°52' E 031°03'0 0.0
2014-Apr-11 21:33S 29°52' E 031°03'0 0.0
2014-Apr-11 20:33S 29°52' E 031°03'0 0.0
2014-Apr-11 19:27S 29°52' E 031°03'0 0.0
2014-Apr-11 18:27S 29°52' E 031°03'0 0.0
2014-Apr-11 17:33S 29°52' E 031°03'3 3.2
2014-Apr-11 16:33S 29°50' E 031°05'7 6.8
2014-Apr-11 15:28S 29°43' E 031°07'0 0.1
2014-Apr-11 14:30S 29°43' E 031°07'0 0.0
2014-Apr-11 13:33S 29°43' E 031°07'1 1.1
2014-Apr-11 12:32S 29°44' E 031°07'3 2.7
2014-Apr-11 11:33S 29°46' E 031°06'1 0.9
2014-Apr-11 10:33S 29°46' E 031°07'1 0.6
2014-Apr-11 09:33S 29°47' E 031°07'0 0.2
2014-Apr-11 08:33S 29°47' E 031°07'5 4.7
2014-Apr-11 07:33S 29°45' E 031°12'1212.1
2014-Apr-11 06:33S 29°37' E 031°22'1211.9
2014-Apr-11 05:33S 29°29' E 031°32'1511.9
2014-Apr-11 04:16S 29°18' E 031°45'1011.8
2014-Apr-11 03:23S 29°11' E 031°53'  
2014-Apr-08 12:08S 27°32' E 032°49'140 9.5
2014-Apr-07 21:26S 29°33' E 031°27'1011.7
2014-Apr-07 20:33S 29°40' E 031°18'1110.9
2014-Apr-07 19:33S 29°47' E 031°09'8 3.8
2014-Apr-07 17:33S 29°52' E 031°03'0 0.0
2014-Apr-07 16:27S 29°52' E 031°03'0 0.0
2014-Apr-07 15:33S 29°52' E 031°03'0 0.0
2014-Apr-07 13:33S 29°52' E 031°03'0 0.0
2014-Apr-07 12:33S 29°52' E 031°03'0 0.0
2014-Apr-07 11:15S 29°52' E 031°03'0 0.0
2014-Apr-07 09:15S 29°52' E 031°03'0 0.0
2014-Apr-07 08:27S 29°52' E 031°03'0 0.0
2014-Apr-07 07:09S 29°52' E 031°03'0 0.0
2014-Apr-07 06:03S 29°52' E 031°03'0 0.0
2014-Apr-07 05:15S 29°52' E 031°03'0 0.0
2014-Apr-07 04:33S 29°52' E 031°03'0 0.0
2014-Apr-07 03:33S 29°52' E 031°03'0 0.0
2014-Apr-07 02:33S 29°52' E 031°03'0 0.0
2014-Apr-07 00:27S 29°52' E 031°03'0 0.0
2014-Apr-06 23:27S 29°52' E 031°03'0 0.0
2014-Apr-06 22:21S 29°52' E 031°03'0 0.0
2014-Apr-06 21:21S 29°52' E 031°03'0 0.0
2014-Apr-06 20:33S 29°52' E 031°03'0 0.0
2014-Apr-06 19:33S 29°52' E 031°03'0 0.0
2014-Apr-06 18:33S 29°52' E 031°03'0 0.0
2014-Apr-06 17:33S 29°52' E 031°03'0 0.0
2014-Apr-06 16:33S 29°52' E 031°03'0 0.0
2014-Apr-06 15:33S 29°52' E 031°03'0 0.0
2014-Apr-06 14:33S 29°52' E 031°03'0 0.0
2014-Apr-06 13:33S 29°52' E 031°03'0 0.0
2014-Apr-06 12:27S 29°52' E 031°03'0 0.0
2014-Apr-06 11:33S 29°52' E 031°03'0 0.0
2014-Apr-06 10:33S 29°52' E 031°03'4 4.2
2014-Apr-06 09:33S 29°49' E 031°05'1 1.2
2014-Apr-06 08:27S 29°48' E 031°06'2 2.3
2014-Apr-06 07:29S 29°46' E 031°06'0 0.5
2014-Apr-06 06:33S 29°46' E 031°06'0 0.1
2014-Apr-06 05:29S 29°46' E 031°06'0 0.0
2014-Apr-06 04:16S 29°46' E 031°06'0 0.0
2014-Apr-06 03:32S 29°46' E 031°06'0 0.0
2014-Apr-06 02:22S 29°46' E 031°06'0 0.0
2014-Apr-06 01:28S 29°46' E 031°06'0 0.0
2014-Apr-06 00:31S 29°46' E 031°06'0 0.0
2014-Apr-05 23:24S 29°46' E 031°06'0 0.0
2014-Apr-05 22:21S 29°46' E 031°06'0 0.0
2014-Apr-05 21:22S 29°46' E 031°06'0 0.0
2014-Apr-05 20:28S 29°46' E 031°06'0 0.0
2014-Apr-05 19:28S 29°46' E 031°06'0 0.0
2014-Apr-05 18:32S 29°46' E 031°06'0 0.0
2014-Apr-05 17:26S 29°46' E 031°06'0 0.0
2014-Apr-05 16:23S 29°46' E 031°06'0 0.0
2014-Apr-05 15:24S 29°46' E 031°06'0 0.0
2014-Apr-05 14:31S 29°46' E 031°06'0 0.0
2014-Apr-05 13:33S 29°46' E 031°06'0 0.0
2014-Apr-05 12:17S 29°46' E 031°06'0 0.0
2014-Apr-05 11:19S 29°46' E 031°06'0 0.0
2014-Apr-05 10:12S 29°46' E 031°06'0 0.0
2014-Apr-05 09:30S 29°46' E 031°06'0 0.0
2014-Apr-05 08:32S 29°46' E 031°06'0 0.0
2014-Apr-05 07:26S 29°46' E 031°06'0 0.0
2014-Apr-05 06:30S 29°46' E 031°06'0 0.0
2014-Apr-05 05:28S 29°46' E 031°06'0 0.0
2014-Apr-05 04:28S 29°46' E 031°06'0 0.0
2014-Apr-05 03:16S 29°46' E 031°06'0 0.0
2014-Apr-05 02:33S 29°46' E 031°06'0 0.0
2014-Apr-05 01:20S 29°46' E 031°06'0 0.0
2014-Apr-05 00:29S 29°46' E 031°06'0 0.0
2014-Apr-04 23:08S 29°46' E 031°06'0 0.0
2014-Apr-04 22:21S 29°46' E 031°06'0 0.0
2014-Apr-04 21:28S 29°46' E 031°06'0 0.0
2014-Apr-04 20:27S 29°46' E 031°06'0 0.0
2014-Apr-04 19:33S 29°46' E 031°06'0 0.0
2014-Apr-04 18:23S 29°46' E 031°06'0 0.1
2014-Apr-04 17:30S 29°46' E 031°06'0 0.0
2014-Apr-04 16:30S 29°46' E 031°06'0 0.0
2014-Apr-04 15:29S 29°46' E 031°06'0 0.0
2014-Apr-04 14:30S 29°46' E 031°06'0 0.0
2014-Apr-04 13:30S 29°46' E 031°06'0 0.0
2014-Apr-04 12:20S 29°46' E 031°06'0 0.0
2014-Apr-04 11:26S 29°46' E 031°06'0 0.0
2014-Apr-04 10:32S 29°46' E 031°06'0 0.0
2014-Apr-04 09:32S 29°46' E 031°06'0 0.0
2014-Apr-04 08:32S 29°46' E 031°06'0 0.0
2014-Apr-04 07:32S 29°46' E 031°06'0 0.0
2014-Apr-04 06:32S 29°46' E 031°06'0 0.0
2014-Apr-04 05:26S 29°46' E 031°06'0 0.0
2014-Apr-04 04:26S 29°46' E 031°06'0 0.0
2014-Apr-04 03:32S 29°46' E 031°06'0 0.0
2014-Apr-04 02:17S 29°46' E 031°06'0 0.0
2014-Apr-04 01:33S 29°46' E 031°06'0 0.0
2014-Apr-04 00:28S 29°46' E 031°06'0 0.0
2014-Apr-03 23:33S 29°46' E 031°06'0 0.0
2014-Apr-03 22:33S 29°46' E 031°06'  

Dump ship's entire track history

sailing weather and tide predictions

M\v Black Rhino — V7TR7 — position and weather